Time;durP1;ratioP1;P1;durP2;ratioP2;P2;SDS_P1;SDS_P2;PMS_P1;PMS_P2;Temp;Humidity;BMP_temperature;BMP_pressure;BME280_temperature;BME280_humidity;BME280_pressure;Samples;Min_cycle;Max_cycle;Signal;HPM_P1;HPM_P2
2022/06/02 00:00:25;;;;;;;17.23;15.45;;;9.30;99.90;;;;;;4992746;28;20058;-88
2022/06/02 00:03:26;;;;;;;17.63;15.70;;;9.30;99.90;;;;;;5008830;28;20141;-90
2022/06/02 00:05:57;;;;;;;16.80;15.00;;;9.30;99.90;;;;;;4932012;29;20074;-89
2022/06/02 00:08:35;;;;;;;17.60;15.65;;;9.30;99.90;;;;;;4934549;29;20048;-90
2022/06/02 00:11:29;;;;;;;17.10;15.00;;;9.30;99.90;;;;;;4935682;29;20059;-88
2022/06/02 00:14:10;;;;;;;18.27;16.38;;;9.30;99.90;;;;;;4951443;28;20137;-90
2022/06/02 00:16:46;;;;;;;;;;;9.30;99.90;;;;;;4959062;28;20054;-89
2022/06/02 00:19:27;;;;;;;15.00;13.50;;;9.20;99.90;;;;;;4954819;28;19926;-89
2022/06/02 00:22:14;;;;;;;17.17;15.43;;;9.20;99.90;;;;;;4970126;28;20056;-89
2022/06/02 00:24:57;;;;;;;17.63;15.77;;;9.20;99.90;;;;;;4937165;28;20169;-90
2022/06/02 00:27:44;;;;;;;17.52;15.73;;;9.10;99.90;;;;;;4953968;28;20071;-89
2022/06/02 00:30:29;;;;;;;17.23;15.43;;;9.10;99.90;;;;;;4969151;28;20570;-89
2022/06/02 00:33:01;;;;;;;18.35;16.45;;;9.10;99.90;;;;;;4967660;28;20065;-89
2022/06/02 00:35:36;;;;;;;;;;;9.10;99.90;;;;;;4969437;28;20039;-88
2022/06/02 00:38:04;;;;;;;19.30;17.30;;;9.00;99.90;;;;;;4986038;28;19922;-89
2022/06/02 00:40:32;;;;;;;20.33;18.02;;;9.00;99.90;;;;;;5031283;28;20057;-89
2022/06/02 00:43:23;;;;;;;19.88;14.60;;;9.10;99.90;;;;;;5049049;28;20135;-89
2022/06/02 00:45:57;;;;;;;18.33;13.93;;;9.00;99.90;;;;;;5053864;28;20048;-88
2022/06/02 00:48:42;;;;;;;20.90;18.80;;;9.00;99.90;;;;;;5055266;28;20056;-89
2022/06/02 00:51:15;;;;;;;20.55;18.13;;;9.10;99.90;;;;;;5038393;28;20033;-90
2022/06/02 00:57:30;;;;;;;19.52;17.52;;;9.10;99.90;;;;;;5067316;28;20097;-89
2022/06/02 00:59:52;;;;;;;17.70;15.80;;;9.10;99.90;;;;;;5071580;28;20037;-91
2022/06/02 01:02:18;;;;;;;16.98;14.90;;;9.10;99.90;;;;;;5065648;28;20053;-89
2022/06/02 01:04:44;;;;;;;16.42;10.82;;;9.00;99.90;;;;;;5032340;28;20108;-89
2022/06/02 01:07:30;;;;;;;17.67;15.45;;;8.90;99.90;;;;;;5055613;28;20071;-89
2022/06/02 01:10:27;;;;;;;17.60;15.68;;;8.90;99.90;;;;;;5074341;28;20097;-89
2022/06/02 01:13:07;;;;;;;19.27;16.13;;;8.90;99.90;;;;;;5048146;28;20052;-89
2022/06/02 01:16:06;;;;;;;16.67;14.80;;;8.90;99.90;;;;;;5067817;28;20086;-89
2022/06/02 01:18:51;;;;;;;17.50;15.60;;;8.90;99.90;;;;;;5069913;28;20305;-89
2022/06/02 01:21:46;;;;;;;15.75;13.50;;;8.80;99.90;;;;;;5035214;28;20048;-90
2022/06/02 01:24:44;;;;;;;18.33;16.42;;;8.80;99.90;;;;;;5051979;28;20080;-89
2022/06/02 01:27:10;;;;;;;16.40;12.20;;;8.70;99.90;;;;;;5067349;28;20041;-89
2022/06/02 01:30:16;;;;;;;14.55;10.15;;;8.60;99.90;;;;;;5045330;28;20041;-89
2022/06/02 01:33:03;;;;;;;19.38;17.23;;;8.60;99.90;;;;;;5055023;28;20036;-89
2022/06/02 01:35:48;;;;;;;17.67;12.48;;;8.60;99.90;;;;;;5054486;28;20044;-90
2022/06/02 01:38:20;;;;;;;19.17;17.13;;;8.50;99.90;;;;;;5050097;28;20496;-89
2022/06/02 01:40:59;;;;;;;19.48;17.38;;;8.50;99.90;;;;;;5067104;28;20048;-89
2022/06/02 01:43:48;;;;;;;21.75;19.27;;;8.60;99.90;;;;;;5037842;28;20135;-88
2022/06/02 01:46:23;;;;;;;22.70;20.30;;;8.60;99.90;;;;;;5039734;28;20588;-89
2022/06/02 01:49:14;;;;;;;19.17;14.57;;;8.60;99.90;;;;;;5032512;28;20040;-89
2022/06/02 01:51:39;;;;;;;23.85;21.33;;;8.50;99.90;;;;;;5047939;28;20130;-88
2022/06/02 01:54:35;;;;;;;19.60;14.55;;;8.50;99.90;;;;;;5048155;28;20040;-88
2022/06/02 01:57:10;;;;;;;23.75;20.88;;;8.50;99.90;;;;;;5073621;28;20106;-88
2022/06/02 01:59:55;;;;;;;21.50;19.25;;;8.60;99.90;;;;;;5047194;28;20044;-87
2022/06/02 02:03:14;;;;;;;22.65;19.00;;;8.60;99.90;;;;;;5038588;28;20101;-88
2022/06/02 02:06:08;;;;;;;22.50;19.58;;;8.60;99.90;;;;;;4981478;28;20047;-88
2022/06/02 02:09:01;;;;;;;21.70;19.40;;;8.60;99.90;;;;;;4988404;28;20050;-88
2022/06/02 02:11:35;;;;;;;19.95;13.50;;;8.50;99.90;;;;;;4996951;28;20054;-88
2022/06/02 02:14:38;;;;;;;20.55;18.33;;;8.50;99.90;;;;;;4993535;28;20091;-88
2022/06/02 02:17:24;;;;;;;18.90;13.10;;;8.40;99.90;;;;;;4993648;28;20499;-87
2022/06/02 02:20:13;;;;;;;19.25;13.98;;;8.40;99.90;;;;;;4966001;28;20097;-87
2022/06/02 02:23:12;;;;;;;22.20;14.90;;;8.30;99.90;;;;;;4989703;28;20505;-88
2022/06/02 02:26:03;;;;;;;21.15;15.27;;;8.30;99.90;;;;;;4991120;28;20050;-87
2022/06/02 02:28:50;;;;;;;23.02;15.95;;;8.30;99.90;;;;;;4984347;28;20096;-88
2022/06/02 02:31:35;;;;;;;29.85;24.55;;;8.30;99.90;;;;;;4988962;28;20054;-87
2022/06/02 02:34:17;;;;;;;29.60;25.27;;;8.40;99.90;;;;;;4973938;28;20131;-87
2022/06/02 02:36:54;;;;;;;22.77;16.60;;;8.40;99.90;;;;;;5000440;28;20114;-86
2022/06/02 02:39:44;;;;;;;27.40;24.27;;;8.40;99.90;;;;;;5034047;28;20397;-87
2022/06/02 02:42:14;;;;;;;27.73;24.10;;;8.40;99.90;;;;;;5045025;28;20480;-87
2022/06/02 02:45:00;;;;;;;27.10;23.25;;;8.40;99.90;;;;;;5078964;28;20081;-88
2022/06/02 02:47:43;;;;;;;16.08;11.57;;;8.50;99.90;;;;;;5045529;28;20101;-87
2022/06/02 02:50:19;;;;;;;18.75;15.88;;;8.40;99.90;;;;;;5049503;28;20064;-87
2022/06/02 02:53:12;;;;;;;18.60;15.70;;;8.40;99.90;;;;;;5039368;28;20044;-88
2022/06/02 02:55:47;;;;;;;15.18;10.68;;;8.30;99.90;;;;;;5073536;28;20037;-88
2022/06/02 02:58:17;;;;;;;15.88;11.48;;;8.20;99.90;;;;;;5086616;28;20131;-87
2022/06/02 03:01:00;;;;;;;17.02;12.20;;;8.20;99.90;;;;;;5034881;28;20049;-87
2022/06/02 03:03:32;;;;;;;20.23;17.25;;;8.10;99.90;;;;;;5052603;28;20048;-87
2022/06/02 03:06:26;;;;;;;19.90;13.63;;;8.10;99.90;;;;;;5037376;28;20071;-87
2022/06/02 03:09:09;;;;;;;20.77;12.65;;;8.10;99.90;;;;;;5053947;28;20037;-87
2022/06/02 03:11:53;;;;;;;24.17;21.58;;;8.10;99.90;;;;;;5059541;28;20055;-87
2022/06/02 03:14:21;;;;;;;27.20;22.02;;;8.10;99.90;;;;;;5036401;28;20408;-87
2022/06/02 03:16:56;;;;;;;19.42;12.27;;;8.10;99.90;;;;;;5052603;28;20047;-88
2022/06/02 03:19:33;;;;;;;16.70;12.23;;;8.10;99.90;;;;;;5072170;28;20044;-87
2022/06/02 03:22:12;;;;;;;16.70;14.90;;;8.10;99.90;;;;;;5076829;28;20093;-87
2022/06/02 03:24:41;;;;;;;16.20;10.48;;;8.00;99.90;;;;;;5061865;28;20036;-87
2022/06/02 03:27:25;;;;;;;15.43;10.93;;;8.00;99.90;;;;;;5053332;28;20555;-87
2022/06/02 03:30:25;;;;;;;14.93;10.90;;;7.90;99.90;;;;;;5068985;28;20427;-87
2022/06/02 03:32:55;;;;;;;18.40;14.60;;;7.90;99.90;;;;;;5036371;28;20400;-87
2022/06/02 03:35:48;;;;;;;14.68;10.55;;;7.90;99.90;;;;;;5062208;28;20485;-87
2022/06/02 03:38:21;;;;;;;13.95;9.50;;;7.80;99.90;;;;;;5051741;28;20044;-87
2022/06/02 03:41:05;;;;;;;17.70;14.70;;;7.80;99.90;;;;;;5069804;28;20041;-87
2022/06/02 03:43:31;;;;;;;13.75;9.57;;;7.90;99.90;;;;;;5034199;28;20412;-87
2022/06/02 03:46:15;;;;;;;14.40;10.45;;;7.80;99.90;;;;;;5063202;28;20040;-87
2022/06/02 03:49:10;;;;;;;11.82;7.03;;;7.90;99.90;;;;;;5021663;28;20052;-88
2022/06/02 03:51:54;;;;;;;14.93;11.48;;;7.80;99.90;;;;;;5068083;28;20044;-87
2022/06/02 03:54:43;;;;;;;18.40;15.48;;;7.80;99.90;;;;;;5071529;28;20048;-88
2022/06/02 03:57:12;;;;;;;15.75;11.10;;;7.90;99.90;;;;;;5059892;28;20036;-88
2022/06/02 04:00:00;;;;;;;19.60;16.73;;;7.90;99.90;;;;;;5059870;28;20346;-87
2022/06/02 04:02:36;;;;;;;16.58;11.38;;;8.00;99.90;;;;;;5057598;28;20068;-86
2022/06/02 04:05:28;;;;;;;19.60;12.50;;;7.90;99.90;;;;;;5071418;28;20089;-88
2022/06/02 04:08:23;;;;;;;19.60;13.80;;;8.00;99.90;;;;;;5053369;28;20056;-88
2022/06/02 04:11:12;;;;;;;19.63;13.93;;;8.00;99.90;;;;;;4992714;28;20118;-87
2022/06/02 04:13:38;;;;;;;15.63;11.43;;;8.00;99.90;;;;;;5000932;28;20053;-88
2022/06/02 04:16:09;;;;;;;19.05;14.32;;;8.10;99.90;;;;;;4994581;28;20090;-89
2022/06/02 04:19:00;;;;;;;18.27;13.88;;;8.10;99.90;;;;;;4987430;28;20490;-88
2022/06/02 04:21:37;;;;;;;19.50;13.60;;;8.20;99.90;;;;;;5007422;28;20062;-88
2022/06/02 04:24:33;;;;;;;21.80;19.20;;;8.20;99.90;;;;;;5007944;28;20101;-89
2022/06/02 04:26:58;;;;;;;23.42;20.15;;;8.30;99.90;;;;;;4992273;28;20056;-89
2022/06/02 04:29:39;;;;;;;23.45;20.48;;;8.40;99.90;;;;;;4969398;28;20050;-89
2022/06/02 04:32:28;;;;;;;24.63;20.60;;;8.50;99.90;;;;;;4974563;28;20044;-89
2022/06/02 04:35:05;;;;;;;20.20;13.85;;;8.50;99.90;;;;;;4983701;28;20056;-88
2022/06/02 04:37:41;;;;;;;25.25;21.30;;;8.60;99.90;;;;;;4976672;28;20120;-87
2022/06/02 04:40:27;;;;;;;25.23;21.17;;;8.70;99.90;;;;;;4974652;28;20061;-87
2022/06/02 04:43:07;;;;;;;25.40;21.40;;;8.70;99.90;;;;;;4988616;28;20076;-87
2022/06/02 04:45:49;;;;;;;20.05;14.02;;;8.80;99.90;;;;;;4973019;28;20103;-88
2022/06/02 04:48:28;;;;;;;24.67;21.02;;;8.80;99.90;;;;;;5040595;28;20091;-91
2022/06/02 04:51:25;;;;;;;24.80;21.00;;;8.90;99.90;;;;;;5045403;28;20128;-87
2022/06/02 04:54:15;;;;;;;24.05;20.23;;;9.00;99.90;;;;;;5057804;28;20052;-87
2022/06/02 04:57:15;;;;;;;25.27;21.35;;;9.00;99.90;;;;;;5047493;28;20058;-86
2022/06/02 04:59:57;;;;;;;24.13;21.45;;;9.10;99.90;;;;;;5057079;28;20056;-86
2022/06/02 05:02:32;;;;;;;23.33;20.88;;;9.20;99.90;;;;;;5083522;28;20113;-87
2022/06/02 05:05:06;;;;;;;24.13;21.52;;;9.30;99.90;;;;;;5067697;28;20392;-86
2022/06/02 05:08:02;;;;;;;24.08;21.55;;;9.40;99.90;;;;;;5032254;28;20408;-87
2022/06/02 05:10:41;;;;;;;25.42;21.98;;;9.40;99.90;;;;;;5050150;28;20090;-86
2022/06/02 05:13:19;;;;;;;23.25;20.88;;;9.50;99.90;;;;;;5072031;28;20100;-86
2022/06/02 05:16:15;;;;;;;22.42;20.02;;;9.60;99.90;;;;;;5084766;28;20492;-87
2022/06/02 05:18:59;;;;;;;24.02;19.70;;;9.70;99.90;;;;;;5067852;28;20089;-86
2022/06/02 05:21:42;;;;;;;21.48;19.23;;;9.80;99.90;;;;;;5070596;28;20131;-87
2022/06/02 05:24:18;;;;;;;22.15;19.38;;;9.90;99.90;;;;;;5071104;28;20040;-87
2022/06/02 05:27:05;;;;;;;22.77;20.45;;;10.00;99.90;;;;;;5070753;28;20446;-87
2022/06/02 05:30:07;;;;;;;22.40;19.80;;;10.10;99.90;;;;;;5077056;28;20083;-86
2022/06/02 05:32:51;;;;;;;;;;;10.20;99.90;;;;;;5054663;28;20110;-87
2022/06/02 05:35:36;;;;;;;20.75;18.55;;;10.20;99.90;;;;;;5072007;28;20292;-87
2022/06/02 05:38:20;;;;;;;21.50;19.15;;;10.30;99.90;;;;;;5040716;28;20044;-86
2022/06/02 05:40:54;;;;;;;20.45;18.20;;;10.50;99.90;;;;;;5035870;28;20087;-87
2022/06/02 05:43:25;;;;;;;19.45;17.27;;;10.60;99.90;;;;;;5030127;28;20049;-87
2022/06/02 05:45:51;;;;;;;19.77;17.77;;;10.70;99.90;;;;;;5035325;28;20045;-87
2022/06/02 05:48:39;;;;;;;19.33;17.27;;;10.80;99.90;;;;;;5062178;28;20121;-88
2022/06/02 05:51:25;;;;;;;17.83;15.95;;;10.90;99.90;;;;;;5088054;28;20059;-87
2022/06/02 05:53:54;;;;;;;17.55;15.65;;;11.00;99.90;;;;;;5055143;28;20334;-86
2022/06/02 05:56:31;;;;;;;16.38;14.68;;;11.20;99.90;;;;;;5053260;28;20048;-87
2022/06/02 05:59:20;;;;;;;15.55;13.70;;;11.30;99.90;;;;;;5055036;28;20135;-85
2022/06/02 06:01:48;;;;;;;15.57;13.95;;;11.40;99.90;;;;;;5084616;28;20500;-87
2022/06/02 06:04:23;;;;;;;15.40;13.80;;;11.60;99.90;;;;;;5036274;28;20389;-88
2022/06/02 06:06:54;;;;;;;14.88;12.80;;;11.70;99.90;;;;;;5041052;28;20119;-86
2022/06/02 06:09:39;;;;;;;13.75;11.88;;;11.80;99.90;;;;;;5045257;28;20135;-88
2022/06/02 06:12:20;;;;;;;12.93;11.52;;;11.90;99.90;;;;;;5074330;28;20128;-90
2022/06/02 06:15:17;;;;;;;13.70;12.30;;;12.10;99.90;;;;;;5056866;28;20470;-89
2022/06/02 06:18:04;;;;;;;13.05;11.73;;;12.20;99.90;;;;;;5054599;28;20087;-88
2022/06/02 06:20:45;;;;;;;12.70;11.10;;;12.30;99.90;;;;;;5075551;28;20079;-87
2022/06/02 06:23:10;;;;;;;12.80;10.63;;;12.40;99.90;;;;;;5051088;28;20059;-89
2022/06/02 06:25:44;;;;;;;12.45;10.65;;;12.60;99.90;;;;;;5059931;28;20404;-91
2022/06/02 06:28:19;;;;;;;13.75;11.05;;;12.70;99.90;;;;;;5069089;28;20082;-88
2022/06/02 06:31:08;;;;;;;9.95;8.30;;;12.70;99.90;;;;;;5062975;28;20439;-88
2022/06/02 06:33:51;;;;;;;10.52;8.35;;;12.80;99.90;;;;;;5072758;28;20098;-88
2022/06/02 06:36:51;;;;;;;10.13;7.65;;;12.80;99.90;;;;;;5067597;28;20072;-88
2022/06/02 06:39:48;;;;;;;9.80;7.75;;;12.90;99.90;;;;;;5087089;28;20400;-88
2022/06/02 06:42:37;;;;;;;9.10;7.35;;;13.00;99.90;;;;;;5068734;28;20040;-89
2022/06/02 06:45:20;;;;;;;9.05;7.25;;;13.00;99.90;;;;;;5033905;28;20094;-87
2022/06/02 06:47:53;;;;;;;8.55;6.82;;;13.10;99.90;;;;;;5042889;28;20045;-91
2022/06/02 06:50:46;;;;;;;9.30;6.78;;;13.20;99.90;;;;;;5066314;28;20041;-90
2022/06/02 06:53:51;;;;;;;9.00;7.18;;;13.20;99.90;;;;;;5018219;28;20395;-90
2022/06/02 06:56:39;;;;;;;8.98;6.90;;;13.30;99.90;;;;;;5003589;28;20049;-89
2022/06/02 06:59:14;;;;;;;8.50;6.60;;;13.40;99.90;;;;;;5071282;28;20050;-86
2022/06/02 07:02:01;;;;;;;9.70;5.57;;;13.40;99.90;;;;;;5068158;28;20049;-87
2022/06/02 07:04:45;;;;;;;8.77;5.90;;;13.50;99.90;;;;;;5069992;28;20044;-87
2022/06/02 07:07:26;;;;;;;9.55;5.20;;;13.50;99.90;;;;;;5056384;28;20064;-88
2022/06/02 07:10:17;;;;;;;8.40;5.25;;;13.60;99.90;;;;;;5043620;28;20498;-87
2022/06/02 07:12:55;;;;;;;7.40;4.85;;;13.70;99.90;;;;;;5053485;28;20044;-88
2022/06/02 07:15:29;;;;;;;8.23;4.55;;;13.90;99.90;;;;;;5091533;28;20395;-88
2022/06/02 07:18:22;;;;;;;7.55;3.83;;;13.90;99.90;;;;;;5064594;28;20077;-90
2022/06/02 07:21:18;;;;;;;7.07;3.70;;;14.00;99.90;;;;;;5091419;28;20078;-88
2022/06/02 07:23:56;;;;;;;6.93;3.83;;;14.00;99.90;;;;;;5090635;28;20521;-89
2022/06/02 07:26:46;;;;;;;8.18;3.30;;;14.00;99.90;;;;;;5067071;28;20049;-92
2022/06/02 07:29:18;;;;;;;7.32;3.65;;;14.00;99.90;;;;;;5082230;28;20043;-90
2022/06/02 07:32:21;;;;;;;7.05;3.67;;;14.00;99.90;;;;;;5093084;28;20166;-90
2022/06/02 07:35:17;;;;;;;7.30;4.50;;;14.10;99.90;;;;;;5048555;28;20060;-93
2022/06/02 07:37:54;;;;;;;8.05;4.80;;;14.20;99.90;;;;;;5052717;28;20681;-91
2022/06/02 07:40:44;;;;;;;7.72;3.75;;;14.20;99.90;;;;;;5074975;28;20089;-93
2022/06/02 07:43:31;;;;;;;6.07;3.45;;;14.10;99.90;;;;;;5055019;28;20087;-94
2022/06/02 07:46:31;;;;;;;6.90;3.50;;;14.00;99.90;;;;;;5070879;28;20719;-93
2022/06/02 07:49:23;;;;;;;5.75;3.20;;;14.00;99.90;;;;;;5047126;28;20037;-94
2022/06/02 07:52:07;;;;;;;5.10;2.70;;;14.10;99.90;;;;;;5050640;28;20045;-90
2022/06/02 07:54:48;;;;;;;5.90;3.63;;;14.30;99.90;;;;;;5051161;28;20128;-94
2022/06/02 07:57:31;;;;;;;5.95;2.90;;;14.30;99.90;;;;;;5041946;28;20049;-92
2022/06/02 08:00:13;;;;;;;6.50;3.40;;;14.30;99.90;;;;;;5066153;28;20127;-87
2022/06/02 08:03:04;;;;;;;6.28;3.70;;;14.40;99.90;;;;;;5058019;28;20621;-90
2022/06/02 08:05:51;;;;;;;7.07;3.17;;;14.60;99.90;;;;;;5055506;28;20424;-90
2022/06/02 08:08:29;;;;;;;5.78;3.10;;;14.80;99.90;;;;;;5032977;28;20396;-88
2022/06/02 08:11:03;;;;;;;6.35;2.80;;;14.80;99.90;;;;;;5057292;28;20052;-88
2022/06/02 08:13:39;;;;;;;4.82;2.80;;;14.90;99.90;;;;;;5073838;28;20037;-88
2022/06/02 08:16:27;;;;;;;5.40;3.22;;;14.80;99.90;;;;;;5032237;28;20087;-90
2022/06/02 08:19:23;;;;;;;5.05;2.88;;;14.80;99.90;;;;;;5051376;28;20048;-89
2022/06/02 08:21:53;;;;;;;6.93;2.83;;;14.80;99.90;;;;;;5048698;28;20506;-91
2022/06/02 08:24:59;;;;;;;6.03;2.90;;;15.00;99.90;;;;;;5061791;28;20071;-90
2022/06/02 08:27:43;;;;;;;6.13;2.85;;;15.10;99.90;;;;;;5038873;28;20102;-91
2022/06/02 08:30:17;;;;;;;6.18;2.88;;;15.10;99.90;;;;;;5066306;28;20056;-92
2022/06/02 08:33:17;;;;;;;5.63;3.17;;;15.00;99.90;;;;;;5075030;28;20036;-89
2022/06/02 08:36:03;;;;;;;5.95;3.28;;;15.10;99.90;;;;;;5052149;28;20047;-88
2022/06/02 08:38:37;;;;;;;6.13;2.97;;;15.10;99.90;;;;;;5029353;28;20056;-90
2022/06/02 08:41:34;;;;;;;5.90;2.70;;;15.20;99.90;;;;;;5045263;28;20101;-86
2022/06/02 08:44:02;;;;;;;6.18;2.58;;;15.10;99.90;;;;;;5056050;28;20049;-89
2022/06/02 08:46:46;;;;;;;6.43;2.70;;;14.90;99.90;;;;;;5030360;28;20052;-89
2022/06/02 08:49:43;;;;;;;5.78;2.63;;;15.00;99.90;;;;;;5044248;28;20466;-85
2022/06/02 08:52:27;;;;;;;3.90;2.38;;;15.00;99.90;;;;;;5035103;28;20071;-92
2022/06/02 08:55:11;;;;;;;7.38;2.90;;;15.10;99.90;;;;;;5056445;28;20044;-87
2022/06/02 08:58:11;;;;;;;4.93;2.75;;;15.20;99.90;;;;;;5065940;28;20064;-89
2022/06/02 09:01:08;;;;;;;6.28;2.47;;;15.50;99.90;;;;;;5041049;28;20048;-87
2022/06/02 09:03:53;;;;;;;4.30;2.30;;;15.60;99.90;;;;;;5070400;28;20051;-88
2022/06/02 09:06:30;;;;;;;5.00;2.60;;;15.50;99.90;;;;;;5067314;28;20040;-92
2022/06/02 09:08:59;;;;;;;5.88;2.70;;;15.30;99.90;;;;;;5035634;28;20419;-88
2022/06/02 09:11:49;;;;;;;6.68;2.63;;;15.40;99.90;;;;;;5059103;28;20175;-89
2022/06/02 09:14:36;;;;;;;5.68;2.60;;;15.50;99.90;;;;;;5048135;28;20079;-90
2022/06/02 09:17:28;;;;;;;5.35;2.70;;;15.40;99.90;;;;;;5051755;28;20072;-91
2022/06/02 09:19:53;;;;;;;6.55;2.97;;;15.30;99.90;;;;;;5036541;28;20428;-90
2022/06/02 09:22:54;;;;;;;5.40;2.80;;;15.40;99.90;;;;;;5054539;28;20148;-86
2022/06/02 09:25:51;;;;;;;4.90;2.50;;;15.50;99.90;;;;;;4967606;28;20051;-91
2022/06/02 09:28:50;;;;;;;5.30;2.60;;;15.80;99.90;;;;;;4958811;28;20038;-92
2022/06/02 09:31:43;;;;;;;4.63;2.10;;;15.80;99.90;;;;;;4959300;28;20121;-93
2022/06/02 09:34:27;;;;;;;3.90;1.90;;;15.70;99.90;;;;;;4975933;28;20122;-88
2022/06/02 09:36:57;;;;;;;3.78;2.00;;;15.50;99.90;;;;;;4974458;28;20140;-91
2022/06/02 09:40:19;;;;;;;5.15;2.40;;;15.40;99.90;;;;;;4939946;28;20085;-89
2022/06/02 09:42:51;;;;;;;5.00;2.50;;;15.50;99.90;;;;;;4949631;28;20186;-90
2022/06/02 09:45:44;;;;;;;4.03;2.00;;;15.70;99.90;;;;;;4973455;28;20054;-90
2022/06/02 09:48:44;;;;;;;4.32;2.17;;;15.80;99.90;;;;;;4973782;28;20049;-87
2022/06/02 09:51:44;;;;;;;4.72;2.38;;;16.00;99.90;;;;;;4958547;28;20085;-89
2022/06/02 09:54:29;;;;;;;4.38;2.30;;;16.00;99.90;;;;;;4970932;28;20050;-88
2022/06/02 10:00:24;;;;;;;4.90;2.17;;;16.00;99.90;;;;;;4973363;28;20046;-89
2022/06/02 10:02:55;;;;;;;4.22;2.00;;;15.90;99.90;;;;;;5003737;28;20078;-88
2022/06/02 10:05:43;;;;;;;5.15;2.28;;;15.90;99.90;;;;;;5068489;28;20049;-88
2022/06/02 10:08:16;;;;;;;4.93;2.40;;;15.90;99.90;;;;;;5051143;28;20463;-87
2022/06/02 10:10:47;;;;;;;4.10;2.28;;;15.80;99.90;;;;;;5065999;28;20503;-91
2022/06/02 10:13:51;;;;;;;4.65;2.13;;;16.00;99.90;;;;;;5051258;28;20076;-91
2022/06/02 10:16:17;;;;;;;4.75;2.20;;;16.20;99.90;;;;;;5055671;28;20105;-90
2022/06/02 10:19:00;;;;;;;6.03;2.50;;;16.40;99.90;;;;;;5053324;28;20470;-90
2022/06/02 10:21:51;;;;;;;4.22;2.10;;;16.50;99.90;;;;;;5086598;28;20399;-91
2022/06/02 10:24:47;;;;;;;4.97;2.00;;;16.60;99.90;;;;;;5070822;28;20087;-89
2022/06/02 10:27:51;;;;;;;4.82;2.53;;;16.80;99.90;;;;;;5043806;28;20044;-90
2022/06/02 10:30:44;;;;;;;3.70;2.08;;;16.90;99.90;;;;;;5085044;28;20040;-88
2022/06/02 10:33:41;;;;;;;5.85;2.13;;;17.00;99.90;;;;;;5041753;28;20044;-91
2022/06/02 10:36:16;;;;;;;4.70;2.25;;;17.00;99.90;;;;;;5032805;28;20549;-90
2022/06/02 10:38:57;;;;;;;4.35;2.17;;;16.90;99.90;;;;;;5051953;28;20328;-89
2022/06/02 10:41:45;;;;;;;4.55;2.20;;;16.80;99.90;;;;;;5033106;28;20489;-90
2022/06/02 10:44:15;;;;;;;4.07;2.10;;;16.70;99.90;;;;;;5049788;28;20515;-89
2022/06/02 10:47:19;;;;;;;4.72;2.40;;;16.50;99.90;;;;;;5058112;28;20076;-91
2022/06/02 10:50:30;;;;;;;4.93;2.00;;;16.60;99.90;;;;;;5086926;28;20169;-89
2022/06/02 10:53:17;;;;;;;4.75;2.50;;;16.70;99.90;;;;;;5085221;28;20063;-89
2022/06/02 10:56:13;;;;;;;4.20;2.03;;;16.80;99.90;;;;;;5052209;28;20284;-86
2022/06/02 10:59:21;;;;;;;4.93;2.33;;;16.90;99.90;;;;;;5071509;28;20123;-87
2022/06/02 11:02:16;;;;;;;4.07;2.33;;;16.80;99.90;;;;;;5067785;28;20056;-87
2022/06/02 11:05:04;;;;;;;4.32;2.20;;;16.60;99.90;;;;;;5071352;28;20052;-91
2022/06/02 11:08:06;;;;;;;4.45;2.28;;;16.60;99.90;;;;;;5054512;28;20044;-89
2022/06/02 11:10:53;;;;;;;5.28;1.80;;;16.60;99.90;;;;;;5069772;28;20463;-90
2022/06/02 11:13:39;;;;;;;3.30;1.85;;;16.60;99.90;;;;;;5053268;28;20044;-89
2022/06/02 11:16:30;;;;;;;3.75;1.80;;;16.50;99.90;;;;;;5071271;28;20124;-90
2022/06/02 11:19:33;;;;;;;4.65;1.95;;;16.50;99.90;;;;;;5072888;28;20099;-91
2022/06/02 11:22:07;;;;;;;4.85;1.75;;;16.60;99.90;;;;;;5054167;28;20053;-92
2022/06/02 11:25:14;;;;;;;3.80;2.00;;;16.80;99.90;;;;;;5050960;28;20056;-89
2022/06/02 11:27:43;;;;;;;5.30;2.03;;;17.10;99.90;;;;;;5052962;28;20048;-91
2022/06/02 11:30:25;;;;;;;4.03;2.20;;;17.30;99.90;;;;;;5047020;28;20389;-91
2022/06/02 11:33:16;;;;;;;3.95;1.85;;;17.40;99.90;;;;;;5033407;28;20102;-90
2022/06/02 11:36:00;;;;;;;5.28;2.20;;;17.40;99.90;;;;;;5048546;28;20056;-90
2022/06/02 11:38:58;;;;;;;4.30;2.00;;;17.30;99.90;;;;;;5053731;28;20049;-90
2022/06/02 11:41:30;;;;;;;4.63;2.03;;;17.20;99.90;;;;;;5030924;28;20068;-89
2022/06/02 11:44:07;;;;;;;4.15;2.10;;;17.10;99.90;;;;;;5062179;28;20055;-89
2022/06/02 11:46:50;;;;;;;5.13;2.17;;;16.90;99.90;;;;;;5061411;28;20099;-88
2022/06/02 11:50:04;;;;;;;5.78;2.17;;;16.90;99.90;;;;;;5052779;28;20381;-90
2022/06/02 11:53:03;;;;;;;4.90;2.20;;;16.80;99.90;;;;;;5051460;28;20412;-90
2022/06/02 11:55:52;;;;;;;4.45;1.92;;;17.00;99.90;;;;;;5038230;28;20052;-90
2022/06/02 11:58:20;;;;;;;4.53;1.80;;;17.10;99.90;;;;;;5053584;28;20507;-90
2022/06/02 12:00:55;;;;;;;3.95;1.80;;;17.20;99.90;;;;;;5062615;28;20092;-90
2022/06/02 12:03:32;;;;;;;3.42;2.10;;;17.30;99.90;;;;;;5047486;28;20597;-90
2022/06/02 12:06:14;;;;;;;4.93;2.20;;;17.30;99.90;;;;;;5050215;28;20044;-89
2022/06/02 12:09:13;;;;;;;2.88;1.67;;;17.20;99.90;;;;;;5068946;28;20044;-90
2022/06/02 12:12:01;;;;;;;4.00;2.00;;;17.20;99.90;;;;;;5053031;28;20049;-89
2022/06/02 12:14:48;;;;;;;3.67;1.90;;;17.20;99.90;;;;;;5051386;28;20052;-90
2022/06/02 12:17:42;;;;;;;4.03;2.05;;;17.30;99.90;;;;;;5065770;28;20349;-91
2022/06/02 12:20:31;;;;;;;4.05;1.80;;;17.40;99.90;;;;;;5050182;28;20095;-90
2022/06/02 12:23:19;;;;;;;6.47;2.50;;;17.40;99.90;;;;;;5051371;28;20052;-90
2022/06/02 12:26:18;;;;;;;5.65;1.98;;;17.40;99.90;;;;;;5052691;28;20492;-90
2022/06/02 12:29:09;;;;;;;4.45;1.60;;;17.40;99.90;;;;;;5069807;28;20093;-89
2022/06/02 12:32:07;;;;;;;4.72;1.90;;;17.30;99.90;;;;;;5070692;28;20063;-90
2022/06/02 12:34:51;;;;;;;4.97;2.38;;;17.30;99.90;;;;;;5047784;28;20041;-88
2022/06/02 12:37:45;;;;;;;4.00;2.15;;;17.30;99.90;;;;;;5034733;28;20345;-88
2022/06/02 12:40:28;;;;;;;5.07;2.05;;;17.30;99.90;;;;;;5046083;28;20047;-90
2022/06/02 12:43:06;;;;;;;3.92;1.90;;;17.40;99.90;;;;;;5058257;28;20076;-89
2022/06/02 12:45:42;;;;;;;4.80;2.03;;;17.40;99.90;;;;;;5066391;28;20049;-86
2022/06/02 12:48:10;;;;;;;5.57;2.20;;;17.40;99.90;;;;;;5056497;28;20033;-88
2022/06/02 12:50:57;;;;;;;3.90;2.00;;;17.40;99.90;;;;;;5065973;28;20102;-89
2022/06/02 12:53:53;;;;;;;4.72;2.15;;;17.40;99.90;;;;;;5035745;28;20095;-89
2022/06/02 12:56:52;;;;;;;4.78;2.00;;;17.50;99.90;;;;;;5033518;28;20119;-90
2022/06/02 12:59:40;;;;;;;3.85;2.00;;;17.50;99.90;;;;;;5055470;28;20071;-91
2022/06/02 13:02:25;;;;;;;3.83;2.00;;;17.40;99.90;;;;;;5068896;28;20052;-90
2022/06/02 13:05:14;;;;;;;4.55;1.77;;;17.50;99.90;;;;;;5069594;28;20087;-90
2022/06/02 13:08:20;;;;;;;2.85;1.70;;;17.50;99.90;;;;;;5069868;28;20068;-91
2022/06/02 13:11:02;;;;;;;3.47;1.60;;;17.60;99.90;;;;;;5050740;28;20242;-89
2022/06/02 13:13:36;;;;;;;4.05;1.80;;;17.80;99.90;;;;;;5051184;28;20056;-86
2022/06/02 13:16:11;;;;;;;2.70;1.70;;;17.90;99.90;;;;;;5067642;28;20037;-87
2022/06/02 13:18:47;;;;;;;3.63;1.70;;;18.10;99.90;;;;;;5070130;28;20047;-88
2022/06/02 13:21:35;;;;;;;2.63;1.40;;;18.10;99.90;;;;;;5068446;28;20078;-88
2022/06/02 13:24:16;;;;;;;2.88;1.50;;;18.30;99.90;;;;;;5062480;28;20108;-90
2022/06/02 13:27:06;;;;;;;2.90;1.60;;;18.30;99.90;;;;;;5050676;28;20045;-86
2022/06/02 13:29:38;;;;;;;2.43;1.50;;;18.30;99.90;;;;;;5067252;28;20041;-83
2022/06/02 13:32:26;;;;;;;2.47;1.50;;;18.30;99.90;;;;;;5053925;28;20045;-89
2022/06/02 13:35:10;;;;;;;3.92;1.70;;;18.20;99.90;;;;;;4952037;28;20054;-89
2022/06/02 13:37:58;;;;;;;4.25;1.80;;;18.20;99.90;;;;;;4967339;28;20047;-87
2022/06/02 13:40:39;;;;;;;4.78;1.77;;;18.10;99.90;;;;;;4955620;28;20136;-89
2022/06/02 13:43:11;;;;;;;;;;;18.10;99.90;;;;;;4987608;28;20046;-91
2022/06/02 13:45:55;;;;;;;3.38;1.55;;;18.00;99.90;;;;;;4976549;28;19929;-89
2022/06/02 13:48:42;;;;;;;3.55;1.70;;;18.00;99.90;;;;;;4981875;28;20050;-91
2022/06/02 13:51:56;;;;;;;4.40;2.00;;;18.30;99.90;;;;;;4975312;28;20416;-88
2022/06/02 13:57:46;;;;;;;4.95;1.90;;;18.50;99.90;;;;;;4967705;28;20042;-93
2022/06/02 14:00:36;;;;;;;3.47;1.67;;;18.40;99.90;;;;;;4959237;28;20105;-88
2022/06/02 14:03:09;;;;;;;5.35;1.88;;;18.30;99.90;;;;;;4956501;28;20051;-88
2022/06/02 14:06:05;;;;;;;4.55;1.90;;;18.30;99.90;;;;;;4970198;28;20070;-91
2022/06/02 14:08:51;;;;;;;4.60;1.95;;;18.20;99.90;;;;;;4966633;28;20096;-86
2022/06/02 14:12:09;;;;;;;4.15;1.83;;;18.20;99.90;;;;;;5009799;28;20044;-85
2022/06/02 14:15:09;;;;;;;4.13;1.80;;;18.10;99.90;;;;;;5001497;28;20049;-85
2022/06/02 14:17:50;;;;;;;4.93;1.70;;;18.10;99.90;;;;;;4970801;28;20487;-88
2022/06/02 14:20:52;;;;;;;5.03;1.80;;;18.10;99.90;;;;;;4975902;28;20054;-89
2022/06/02 14:23:36;;;;;;;3.10;1.50;;;18.10;99.90;;;;;;4962385;28;20066;-90